Flight Track Log - Related Links

Times and Time Zones

All times are in EDT time to prevent confusion due to time zone crossing. See the SWA1969 flight status page for this flight to view local times or setup timezone preferences in your user account.

Time Position Orientation Groundspeed Altitude Reporting Facility
EDT Latitude Longitude Course Direction KTS MPH feet Rate Location/Type
Wed 01:25:08 PM 41.8333 -87.7667 283° West 223 257 3,000  Level Chicago TRACON
Wed 01:26:08 PM 41.8167 -87.8500 255° West 237 273 3,000 500 Level Chicago TRACON
Wed 01:27:08 PM 41.7833 -87.9333 242° Southwest 233 268 4,000 2,031 Climbing Chicago TRACON
Wed 01:28:18 PM 41.7553 -88.0331 249° West 256 295 7,400 2,955 Climbing Chicago Center
Wed 01:29:20 PM 41.7472 -88.1353 264° West 283 326 10,500 2,226 Climbing Chicago Center
Wed 01:30:00 PM 41.9254 -88.6184 283° West  Level FlightAware Approximate
Wed 01:30:22 PM 41.7619 -88.2372 281° West 288 331 12,000  Level Chicago Center
Wed 01:31:24 PM 41.7575 -88.3519 267° West 312 359 12,900 1,597 Climbing Chicago Center
Wed 01:32:26 PM 41.7508 -88.5153 267° West 367 422 15,300 2,323 Climbing Chicago Center
Wed 01:33:28 PM 41.7453 -88.6586 267° West 387 445 17,700 2,226 Climbing Chicago Center
Wed 01:34:30 PM 41.7233 -88.8036 259° West 407 468 19,900 2,177 Climbing Chicago Center
Wed 01:35:32 PM 41.6919 -88.9481 254° West 410 472 22,200 2,274 Climbing Chicago Center
Wed 01:36:34 PM 41.6553 -89.1222 254° West 410 472 24,600 1,935 Climbing Chicago Center
Wed 01:37:36 PM 41.6244 -89.2722 255° West 419 482 26,200 1,403 Climbing Chicago Center
Wed 01:38:38 PM 41.5917 -89.4242 254° West 424 488 27,500 1,258 Climbing Chicago Center
Wed 01:39:40 PM 41.5581 -89.5808 254° West 436 502 28,800 1,403 Climbing Chicago Center
Wed 01:40:42 PM 41.5225 -89.7411 254° West 448 516 30,400 1,500 Climbing Chicago Center
Wed 01:41:44 PM 41.4889 -89.8961 254° West 443 510 31,900 1,500 Climbing Chicago Center
Wed 01:42:46 PM 41.4478 -90.0781 253° West 434 499 33,500 1,548 Climbing Chicago Center
Wed 01:43:48 PM 41.4150 -90.2267 254° West 424 488 35,100 1,210 Climbing Chicago Center
Wed 01:44:50 PM 41.3828 -90.3700 253° West 410 472 36,000 435 Climbing Chicago Center
Wed 01:45:52 PM 41.3506 -90.5156 254° West 410 472 36,000  Level Chicago Center
Wed 01:46:54 PM 41.3139 -90.6647 252° West 427 491 36,000  Level Chicago Center
Wed 01:47:56 PM 41.2714 -90.8072 248° West 418 481 36,000  Level Chicago Center
Wed 01:48:58 PM 41.2208 -90.9781 249° West 416 479 36,000  Level Chicago Center
Wed 01:50:00 PM 41.1792 -91.1211 249° West 417 480 36,000  Level Chicago Center
Wed 01:51:02 PM 41.1364 -91.2631 248° West 416 479 36,000  Level Chicago Center
Wed 01:52:04 PM 41.0944 -91.4006 248° West 408 470 36,000  Level Chicago Center
Wed 01:53:06 PM 41.0519 -91.5397 248° West 408 470 36,000  Level Chicago Center
Wed 01:54:09 PM 41.0061 -91.6942 249° West 408 470 36,000  Level Chicago Center
Wed 01:55:10 PM 40.9636 -91.8306 248° West 405 466 36,000  Level Chicago Center
Wed 01:56:12 PM 40.9214 -91.9683 248° West 408 470 36,000  Level Chicago Center
Wed 01:57:14 PM 40.8711 -92.1303 248° West 403 464 36,000  Level Chicago Center
Wed 01:58:16 PM 40.8292 -92.2644 248° West 401 461 36,000  Level Chicago Center
Wed 01:59:18 PM 40.7881 -92.3994 248° West 402 463 36,000  Level Chicago Center
Wed 02:00:20 PM 40.7467 -92.5328 248° West 399 459 36,000  Level Chicago Center
Wed 02:01:22 PM 40.7044 -92.6650 247° West 398 458 36,000  Level Chicago Center
Wed 02:02:24 PM 40.6542 -92.8222 247° West 395 455 36,000  Level Chicago Center
Wed 02:03:14 PM 40.6203 -92.9281 247° West 396 456 36,000  Level Kansas City Center
Wed 02:04:16 PM 40.5792 -93.0583 247° West 394 453 36,000  Level Kansas City Center
Wed 02:05:18 PM 40.5372 -93.1922 248° West 398 458 36,000  Level Kansas City Center
Wed 02:06:20 PM 40.4850 -93.3514 247° West 401 461 36,000  Level Kansas City Center
Wed 02:07:22 PM 40.4411 -93.4847 247° West 402 463 36,000  Level Kansas City Center
Wed 02:08:24 PM 40.3983 -93.6164 247° West 399 459 36,000  Level Kansas City Center
Wed 02:09:26 PM 40.3558 -93.7500 247° West 400 460 36,000  Level Kansas City Center
Wed 02:10:28 PM 40.3111 -93.8819 246° West 401 461 36,000  Level Kansas City Center
Wed 02:11:30 PM 40.2583 -94.0408 247° West 400 460 36,000  Level Kansas City Center
Wed 02:12:32 PM 40.2133 -94.1750 246° West 398 458 36,000  Level Kansas City Center
Wed 02:13:34 PM 40.1689 -94.3022 245° Southwest 400 460 36,000  Level Kansas City Center
Wed 02:14:36 PM 40.1203 -94.4511 247° West 400 460 36,000  Level Kansas City Center
Wed 02:15:38 PM 40.0783 -94.5761 246° West 396 456 36,000  Level Kansas City Center
Wed 02:16:40 PM 40.0289 -94.7222 246° West 394 453 36,000  Level Kansas City Center
Wed 02:17:42 PM 39.9867 -94.8461 246° West 393 452 36,000  Level Kansas City Center
Wed 02:18:44 PM 39.9353 -94.9933 246° West 395 455 36,000  Level Kansas City Center
Wed 02:19:46 PM 39.8900 -95.1139 244° Southwest 394 453 36,000  Level Kansas City Center
Wed 02:20:48 PM 39.8367 -95.2597 245° Southwest 400 460 36,000  Level Kansas City Center
Wed 02:21:50 PM 39.7908 -95.3839 244° Southwest 399 459 36,000  Level Kansas City Center
Wed 02:22:52 PM 39.7447 -95.5328 248° West 402 463 36,000  Level Kansas City Center
Wed 02:23:54 PM 39.7103 -95.6633 251° West 401 461 36,000  Level Kansas City Center
Wed 02:24:56 PM 39.6678 -95.8131 250° West 399 459 36,000  Level Kansas City Center
Wed 02:25:58 PM 39.6306 -95.9439 250° West 400 460 36,000  Level Kansas City Center
Wed 02:27:00 PM 39.5894 -96.0939 250° West 396 456 36,000  Level Kansas City Center
Wed 02:28:02 PM 39.5531 -96.2236 250° West 401 461 36,000  Level Kansas City Center
Wed 02:29:04 PM 39.5131 -96.3694 250° West 399 459 36,000  Level Kansas City Center
Wed 02:30:06 PM 39.4750 -96.5050 250° West 402 463 36,000  Level Kansas City Center
Wed 02:31:08 PM 39.4361 -96.6356 249° West 405 466 36,000  Level Kansas City Center
Wed 02:32:10 PM 39.3928 -96.7867 250° West 403 464 36,000  Level Kansas City Center
Wed 02:33:12 PM 39.3556 -96.9161 250° West 403 464 36,000  Level Kansas City Center
Wed 02:34:14 PM 39.3131 -97.0678 250° West 403 464 36,000  Level Kansas City Center
Wed 02:35:15 PM 39.2747 -97.1994 249° West 407 468 36,000  Level Kansas City Center
Wed 02:36:17 PM 39.2297 -97.3511 249° West 406 467 36,000  Level Kansas City Center
Wed 02:37:19 PM 39.1925 -97.4814 250° West 406 467 36,000  Level Kansas City Center
Wed 02:38:21 PM 39.1481 -97.6319 249° West 404 465 36,000  Level Kansas City Center
Wed 02:39:23 PM 39.1089 -97.7606 249° West 402 463 36,000  Level Kansas City Center
Wed 02:40:25 PM 39.0719 -97.8864 249° West 403 464 36,000  Level Kansas City Center
Wed 02:41:27 PM 39.0242 -98.0469 249° West 402 463 36,000  Level Kansas City Center
Wed 02:42:29 PM 38.9842 -98.1814 249° West 403 464 36,000  Level Kansas City Center
Wed 02:43:31 PM 38.9442 -98.3142 249° West 404 465 36,000  Level Kansas City Center
Wed 02:44:33 PM 38.9031 -98.4486 249° West 406 467 36,000  Level Kansas City Center
Wed 02:45:35 PM 38.8622 -98.5836 249° West 408 470 36,000 48 Level Kansas City Center
Wed 02:46:37 PM 38.8206 -98.7189 248° West 408 470 36,100  Climbing Kansas City Center
Wed 02:47:39 PM 38.7711 -98.8794 248° West 405 466 36,000 -48 Descending Kansas City Center
Wed 02:48:41 PM 38.7300 -99.0128 248° West 404 465 36,000  Level Kansas City Center
Wed 02:49:43 PM 38.6892 -99.1456 249° West 402 463 36,000  Level Kansas City Center
Wed 02:50:45 PM 38.6461 -99.2800 248° West 407 468 36,000  Level Kansas City Center
Wed 02:51:47 PM 38.6050 -99.4131 248° West 405 466 36,000  Level Kansas City Center
Wed 02:52:49 PM 38.5561 -99.5622 247° West 402 463 36,000  Level Kansas City Center
Wed 02:53:51 PM 38.5175 -99.6894 249° West 402 463 36,000  Level Kansas City Center
Wed 02:54:53 PM 38.4703 -99.8367 248° West 402 463 36,000  Level Kansas City Center
Wed 02:55:54 PM 38.4350 -99.9419 247° West 407 468 36,000  Level Denver Center
Wed 02:56:56 PM 38.3811 -100.1078 248° West 400 460 36,000  Level Denver Center
Wed 02:57:58 PM 38.3397 -100.2333 247° West 401 461 36,000  Level Denver Center
Wed 02:59:00 PM 38.2928 -100.3789 248° West 400 460 36,000  Level Denver Center
Wed 03:00:01 PM 38.2517 -100.5047 247° West 403 464 36,000  Level Denver Center
Wed 03:01:03 PM 38.2092 -100.6536 250° West 402 463 36,000  Level Denver Center
Wed 03:02:05 PM 38.1728 -100.7794 250° West 400 460 36,000  Level Denver Center
Wed 03:03:06 PM 38.1303 -100.9278 250° West 403 464 36,000  Level Denver Center
Wed 03:04:08 PM 38.0931 -101.0531 249° West 399 459 36,000  Level Denver Center
Wed 03:05:10 PM 38.0508 -101.2008 250° West 402 463 36,000  Level Denver Center
Wed 03:06:12 PM 38.0133 -101.3253 249° West 399 459 36,000  Level Denver Center
Wed 03:07:13 PM 37.9706 -101.4719 250° West 400 460 36,000  Level Denver Center
Wed 03:08:15 PM 37.9336 -101.5972 250° West 398 458 36,000  Level Denver Center
Wed 03:09:17 PM 37.8956 -101.7228 249° West 400 460 36,000  Level Denver Center
Wed 03:10:31 PM 37.8525 -101.8692 250° West 401 461 36,000  Level Denver Center
Wed 03:11:33 PM 37.8092 -102.0381 252° West 398 458 36,000  Level Denver Center
Wed 03:12:35 PM 37.7811 -102.1681 255° West 400 460 36,000  Level Denver Center
Wed 03:13:36 PM 37.7492 -102.3172 255° West 397 457 36,000  Level Denver Center
Wed 03:15:34 PM 37.6953 -102.5739 255° West 396 456 36,000  Level Kansas City Center
Wed 03:15:52 PM 37.6869 -102.6125 255° West 398 458 36,000  Level Denver Center
Wed 03:17:06 PM 37.6511 -102.7350 250° West 390 449 36,000  Level Denver Center
Wed 03:18:08 PM 37.5975 -102.9017 248° West 399 459 36,000  Level Denver Center
Wed 03:19:10 PM 37.5539 -103.0475 249° West 399 459 36,000  Level Denver Center
Wed 03:20:12 PM 37.5158 -103.1744 249° West 403 464 36,000  Level Denver Center
Wed 03:21:13 PM 37.4767 -103.3008 249° West 404 465 36,000  Level Denver Center
Wed 03:22:15 PM 37.4311 -103.4494 249° West 407 468 36,000  Level Denver Center
Wed 03:23:17 PM 37.3906 -103.5769 248° West 408 470 36,000  Level Denver Center
Wed 03:24:19 PM 37.3383 -103.7286 247° West 417 480 36,000  Level Denver Center
Wed 03:25:32 PM 37.2906 -103.8572 245° Southwest 419 482 36,000  Level Denver Center
Wed 03:26:35 PM 37.2292 -104.0294 246° West 420 483 36,000  Level Denver Center
Wed 03:27:36 PM 37.1831 -104.1564 246° West 416 479 36,000  Level Denver Center
Wed 03:28:38 PM 37.1350 -104.2825 244° Southwest 415 478 36,000  Level Denver Center
Wed 03:29:10 PM 37.1039 -104.3664 245° Southwest 416 479 36,000  Level Albuquerque Center
Wed 03:29:40 PM 37.0797 -104.4317 245° Southwest 420 483 36,000  Level Denver Center
Wed 03:30:42 PM 37.0308 -104.5586 244° Southwest 421 484 36,000  Level Denver Center
Wed 03:31:44 PM 36.9781 -104.7075 246° West 419 482 36,000  Level Denver Center
Wed 03:32:45 PM 36.9364 -104.8369 248° West 419 482 36,000  Level Denver Center
Wed 03:33:47 PM 36.8922 -104.9581 246° West 421 484 36,000  Level Denver Center
Wed 03:34:20 PM 36.8642 -105.0469 248° West 416 479 36,000  Level Albuquerque Center
Wed 03:35:22 PM 36.8150 -105.1919 247° West 408 470 36,000  Level Albuquerque Center
Wed 03:36:24 PM 36.7725 -105.3150 247° West 405 466 36,000  Level Albuquerque Center
Wed 03:36:52 PM 36.7500 -105.3778 246° West 403 464 36,000  Level Denver Center
Wed 03:37:54 PM 36.7153 -105.4797 247° West 402 463 36,000  Level Denver Center
Wed 03:38:56 PM 36.6581 -105.6461 247° West 408 470 36,000  Level Denver Center
Wed 03:39:58 PM 36.6122 -105.7725 246° West 415 478 36,000  Level Denver Center
Wed 03:40:33 PM 36.5839 -105.8578 248° West 419 482 36,000  Level Albuquerque Center
Wed 03:41:35 PM 36.5406 -105.9856 247° West 420 483 36,000  Level Albuquerque Center
Wed 03:42:37 PM 36.4892 -106.1300 246° West 412 474 36,000  Level Albuquerque Center
Wed 03:43:39 PM 36.4447 -106.2539 246° West 411 473 36,000  Level Albuquerque Center
Wed 03:44:41 PM 36.3947 -106.3983 247° West 408 470 36,000  Level Albuquerque Center
Wed 03:45:43 PM 36.3500 -106.5214 246° West 409 471 36,000  Level Albuquerque Center
Wed 03:46:45 PM 36.2989 -106.6639 246° West 407 468 36,000  Level Albuquerque Center
Wed 03:47:47 PM 36.2550 -106.7853 246° West 405 466 36,000  Level Albuquerque Center
Wed 03:48:49 PM 36.2039 -106.9269 246° West 403 464 36,000  Level Albuquerque Center
Wed 03:49:51 PM 36.1594 -107.0489 246° West 405 466 36,000  Level Albuquerque Center
Wed 03:50:53 PM 36.1089 -107.1897 246° West 403 464 36,000  Level Albuquerque Center
Wed 03:51:55 PM 36.0633 -107.3103 245° Southwest 402 463 36,000  Level Albuquerque Center
Wed 03:52:57 PM 36.0133 -107.4508 246° West 400 460 36,000  Level Albuquerque Center
Wed 03:53:59 PM 35.9697 -107.5697 246° West 399 459 36,000  Level Albuquerque Center
Wed 03:55:01 PM 35.9250 -107.6883 245° Southwest 398 458 36,000  Level Albuquerque Center
Wed 03:56:03 PM 35.8733 -107.8256 245° Southwest 396 456 36,000  Level Albuquerque Center
Wed 03:57:05 PM 35.8297 -107.9439 246° West 395 455 36,000  Level Albuquerque Center
Wed 03:58:07 PM 35.7786 -108.0814 245° Southwest 394 453 36,000  Level Albuquerque Center
Wed 03:59:09 PM 35.7347 -108.1997 245° Southwest 395 455 36,000  Level Albuquerque Center
Wed 04:00:13 PM 35.6822 -108.3381 245° Southwest 397 457 36,000  Level Albuquerque Center
Wed 04:01:15 PM 35.6369 -108.4544 244° Southwest 395 455 36,000  Level Albuquerque Center
Wed 04:02:17 PM 35.5850 -108.5922 245° Southwest 396 456 36,000  Level Albuquerque Center
Wed 04:03:19 PM 35.5403 -108.7103 245° Southwest 395 455 36,000  Level Albuquerque Center
Wed 04:04:21 PM 35.4872 -108.8467 244° Southwest 395 455 36,000  Level Albuquerque Center
Wed 04:05:23 PM 35.4189 -108.9458 230° Southwest 398 458 36,000  Level Albuquerque Center
Wed 04:06:26 PM 35.3319 -109.0614 227° Southwest 407 468 36,000  Level Albuquerque Center
Wed 04:07:28 PM 35.2572 -109.1586 227° Southwest 409 471 36,000  Level Albuquerque Center
Wed 04:08:30 PM 35.1817 -109.2542 226° Southwest 408 470 36,000  Level Albuquerque Center
Wed 04:09:32 PM 35.0961 -109.3661 227° Southwest 404 465 36,000  Level Albuquerque Center
Wed 04:10:34 PM 35.0208 -109.4597 226° Southwest 402 463 36,000  Level Albuquerque Center
Wed 04:11:36 PM 34.9336 -109.5672 224° Southwest 399 459 36,000  Level Albuquerque Center
Wed 04:12:00 PM 34.9085 -109.5938 224° Southwest  Level FlightAware Approximate
Wed 04:12:38 PM 34.8603 -109.6600 226° Southwest 398 458 36,000  Level Albuquerque Center
Wed 04:13:40 PM 34.7742 -109.7703 226° Southwest 400 460 36,000  Level Albuquerque Center
Wed 04:14:42 PM 34.7031 -109.8631 227° Southwest 394 453 36,000  Level Albuquerque Center
Wed 04:15:44 PM 34.6547 -109.9983 247° West 387 445 36,000 -194 Level Albuquerque Center
Wed 04:17:00 PM 34.5930 -110.1495 244° Southwest  Level FlightAware Approximate
Wed 04:17:48 PM 34.5678 -110.2511 244° Southwest 390 449 35,400  Level Albuquerque Center
Wed 04:18:50 PM 34.5203 -110.3544 241° Southwest 374 430 33,100 -2,081 Descending Albuquerque Center
Wed 04:19:52 PM 34.4814 -110.4714 248° West 377 434 31,100 -1,935 Descending Albuquerque Center
Wed 04:20:54 PM 34.4414 -110.5806 246° West 363 418 29,100 -1,887 Descending Albuquerque Center
Wed 04:21:56 PM 34.4017 -110.6842 245° Southwest 344 396 27,200 -1,984 Descending Albuquerque Center
Wed 04:22:58 PM 34.3486 -110.8036 242° Southwest 339 390 25,000 -1,984 Descending Albuquerque Center
Wed 04:24:00 PM 34.2817 -110.8906 227° Southwest 351 404 23,100 -1,839 Descending Albuquerque Center
Wed 04:25:02 PM 34.2150 -110.9761 227° Southwest 352 405 21,200 -1,839 Descending Albuquerque Center
Wed 04:26:04 PM 34.1506 -111.0606 227° Southwest 348 400 19,300 -1,728 Descending Albuquerque Center
Wed 04:27:07 PM 34.0875 -111.1397 226° Southwest 334 384 17,600 -1,680 Descending Albuquerque Center
Wed 04:28:09 PM 34.0272 -111.2178 227° Southwest 323 372 15,800 -1,839 Descending Albuquerque Center
Wed 04:29:11 PM 33.9556 -111.3114 227° Southwest 317 365 13,800 -1,645 Descending Albuquerque Center
Wed 04:30:13 PM 33.8964 -111.3861 226° Southwest 310 357 12,400 -1,306 Descending Albuquerque Center
Wed 04:31:15 PM 33.8344 -111.4456 219° Southwest 289 333 11,100 -871 Descending Albuquerque Center
Wed 04:32:17 PM 33.7703 -111.5008 216° Southwest 283 326 10,600 -823 Descending Albuquerque Center
Wed 04:33:19 PM 33.7075 -111.5561 216° Southwest 280 322 9,400 -823 Descending Albuquerque Center
Wed 04:34:21 PM 33.6478 -111.6069 215° Southwest 267 307 8,900 -829 Descending Albuquerque Center
Wed 04:35:22 PM 33.5906 -111.6531 214° Southwest 252 290 7,700 -1,220 Descending Albuquerque Center
Wed 04:36:24 PM 33.5344 -111.7006 215° Southwest 247 284 6,400 -1,306 Descending Albuquerque Center
Wed 04:37:26 PM 33.4675 -111.7586 216° Southwest 246 283 5,000 -919 Descending Albuquerque Center
Wed 04:38:28 PM 33.4408 -111.8167 241° Southwest 213 245 4,500 -823 Descending Albuquerque Center
Wed 04:39:30 PM 33.4425 -111.8753 272° West 189 217 3,300 -1,113 Descending Albuquerque Center
Wed 04:40:32 PM 33.4422 -111.9328 270° West 180 207 2,200 -871 Descending Albuquerque Center
Wed 04:41:34 PM 33.4411 -111.9894 269° West 170 196 1,500 -677 Descending Albuquerque Center
Wed 04:43:00 PM 33.4343 -112.0116 270° West  Level Estimated
Wed 04:50:00 PM 33.4343 -112.0116 90° East  Level Estimated

Login

Don't have an account? Register now (free) for customized features, flight alerts, and more!